Weather Data

Pearl Creek Farm: 8878 N Farm Road 75, Walnut Grove MO 65770

<== Previous Day (Saturday 19 Mar 2011) | Next Day (Monday 21 Mar 2011) ==>

Summary Precipitation Data For Sunday 20 March 2011

ElementValueUnits
Precipitation0.59"
Notes(none)
SourcePearl Creek Farm

Summary Temperature Data For Sunday 20 March 2011

ElementValueUnits
High Temperature77 oF
Low Temperature49 oF
Average Temperature61 oF
High Humidity91 %
Low Humidity45 %
Average Humidity71 %
SourcePearl Creek Farm

Detail Temperature Data For Sunday 20 March 2011

Date / TimeTemp (F)RH (%)Dew Pt (F)Report Date / TimeSource
2011-03-20 00:00:00 49 91 46.3 2011-03-20 21:30:15 Pearl Creek Farm
2011-03-20 00:30:00 50 90 47.0 2011-03-20 21:30:15 Pearl Creek Farm
2011-03-20 01:00:00 50 89 46.9 2011-03-20 21:30:15 Pearl Creek Farm
2011-03-20 01:30:00 50 88 46.6 2011-03-20 21:30:15 Pearl Creek Farm
2011-03-20 02:00:00 51 88 47.6 2011-03-20 21:30:15 Pearl Creek Farm
2011-03-20 02:30:00 51 87 47.3 2011-03-20 21:30:15 Pearl Creek Farm
2011-03-20 03:00:00 51 87 47.1 2011-03-20 21:30:15 Pearl Creek Farm
2011-03-20 03:30:00 50 86 45.8 2011-03-20 21:30:15 Pearl Creek Farm
2011-03-20 04:00:00 50 85 45.5 2011-03-20 21:30:15 Pearl Creek Farm
2011-03-20 04:30:00 50 84 45.4 2011-03-20 21:30:15 Pearl Creek Farm
2011-03-20 05:00:00 50 83 45.1 2011-03-20 21:30:15 Pearl Creek Farm
2011-03-20 05:30:00 50 83 45.1 2011-03-20 21:30:15 Pearl Creek Farm
2011-03-20 06:00:00 50 84 45.4 2011-03-20 21:30:15 Pearl Creek Farm
2011-03-20 06:30:00 50 84 45.4 2011-03-20 21:30:15 Pearl Creek Farm
2011-03-20 07:00:00 50 86 45.8 2011-03-20 21:30:15 Pearl Creek Farm
2011-03-20 07:30:00 50 85 45.7 2011-03-20 21:30:15 Pearl Creek Farm
2011-03-20 08:00:00 50 87 46.1 2011-03-20 21:30:15 Pearl Creek Farm
2011-03-20 08:30:00 51 87 47.3 2011-03-20 21:30:15 Pearl Creek Farm
2011-03-20 09:00:00 52 87 48.1 2011-03-20 21:30:15 Pearl Creek Farm
2011-03-20 09:30:00 54 87 50.1 2011-03-20 21:30:15 Pearl Creek Farm
2011-03-20 10:00:00 57 85 52.4 2011-03-20 21:30:15 Pearl Creek Farm
2011-03-20 10:30:00 59 85 54.3 2011-03-20 21:30:15 Pearl Creek Farm
2011-03-20 11:00:00 60 83 54.8 2011-03-20 21:30:15 Pearl Creek Farm
2011-03-20 11:30:00 63 77 55.5 2011-03-20 21:30:15 Pearl Creek Farm
2011-03-20 12:00:00 65 74 56.5 2011-03-20 21:30:15 Pearl Creek Farm
2011-03-20 12:30:00 68 66 56.0 2011-03-20 21:30:15 Pearl Creek Farm
2011-03-20 13:00:00 70 61 55.7 2011-03-20 21:30:15 Pearl Creek Farm
2011-03-20 13:30:00 72 52 53.4 2011-03-20 21:30:15 Pearl Creek Farm
2011-03-20 14:00:00 74 45 51.3 2011-03-20 21:30:15 Pearl Creek Farm
2011-03-20 14:30:00 76 46 53.4 2011-03-20 21:30:15 Pearl Creek Farm
2011-03-20 15:00:00 76 48 54.9 2011-03-20 21:30:15 Pearl Creek Farm
2011-03-20 15:30:00 76 47 54.3 2011-03-20 21:30:15 Pearl Creek Farm
2011-03-20 16:00:00 77 49 56.1 2011-03-20 21:30:15 Pearl Creek Farm
2011-03-20 16:30:00 77 47 54.9 2011-03-20 21:30:15 Pearl Creek Farm
2011-03-20 17:00:00 76 48 54.6 2011-03-20 21:30:15 Pearl Creek Farm
2011-03-20 17:30:00 76 49 55.2 2011-03-20 21:30:15 Pearl Creek Farm
2011-03-20 18:00:00 75 51 55.7 2011-03-20 21:30:15 Pearl Creek Farm
2011-03-20 18:30:00 74 52 55.0 2011-03-20 21:30:15 Pearl Creek Farm
2011-03-20 19:00:00 74 51 54.5 2011-03-20 21:30:15 Pearl Creek Farm
2011-03-20 19:30:00 72 57 55.7 2011-03-20 21:30:15 Pearl Creek Farm
2011-03-20 21:00:00 71 55 54.0 2011-05-13 22:19:20 Pearl Creek Farm
2011-03-20 21:30:00 68 60 53.6 2011-05-13 22:19:16 Pearl Creek Farm
2011-03-20 22:00:00 67 65 54.9 2011-05-13 22:19:16 Pearl Creek Farm
2011-03-20 22:30:00 65 66 53.2 2011-05-13 22:19:16 Pearl Creek Farm
2011-03-20 23:00:00 65 65 53.0 2011-05-13 22:19:16 Pearl Creek Farm
2011-03-20 23:30:00 63 69 52.5 2011-05-13 22:19:16 Pearl Creek Farm

A total of 46 rows are displayed.